Aérodrome :
LOGIN :

S'inscrire | Disclaimer

   EN    FR    IT 

 










Légende :    VFR   VFR Marginal   IFR   IFR Intensif   IFR Très Intensif
Visi : 
Plafond : 
>= 8 km
>= 3000ft
5 à 8 km
1000 à 3000 ft
1500m à 5 km
500 à 1000 ft
800 à 1500m
200 à 500 ft
< 800m
< 200 ft
Symboles :   Orages  Brouillard  Fortes neiges  Fortes précipitations  Vent > 20 kt
SIGMETs :   Divers  Orages  Givrage  Turbulence  Onde Orograph.  Cendres Volcan.






- Altitude de l'aérodrome : 17 ft
- Code IATA : MPL


LFMT - Montpellier Méditerranée

DERNIER METAR :
  • 190430Z AUTO 31005KT CAVOK 02/M02 Q1013 NOSIG

METARs EXPIRÉS :
  • 190400Z AUTO 33004KT CAVOK 02/M00 Q1013 NOSIG
  • 190330Z AUTO 33005KT CAVOK 01/M01 Q1012 NOSIG
  • 190300Z AUTO 31003KT CAVOK 02/M01 Q1013 NOSIG
  • 190230Z AUTO 32005KT CAVOK 02/M01 Q1013 NOSIG
  • 190200Z AUTO 33003KT CAVOK 03/M01 Q1013 NOSIG

TAF TAF LFMT
Valide du 19 à 03h jusqu'au 20 à 03h UTC


190200Z 1903/2003 31008KT CAVOK
TEMPO 1911/1917 VRB05KT
BECMG 1917/1919 01008KT
ATIS : +33 4 67 13 11 70



MET'MAP, la Météo Aéronautique d'un coup d'oeil ! - Copyright ORBIFLY Décembre 2007 - Disclaimer

ORBIFLY MET'MAP TEAM :

Programmation & Développement : Alexandra Zaïnal
Conception & Développement : Baudouin d'Aumeries
Co-Programmation & Développement : Marc-Olivier Méhu
Soutien technique & logistique : Manuel Goepfert

Contact : metmap@orbifly.com




SOURCES & CREDITS :

   NOAA